Terminal Aerodrome Forecast
Issued by NWS Cleveland, OH

Home | Current Version | Previous Version | Text Only | Print | Product List | Glossary Off
Versions: 1 2 3 4 5 6 7 8 9 10 11 12 13 14 15

000
FTUS41 KCLE 250520
TAFCAK
TAF
KCAK 250520Z 2506/2606 26005KT P6SM SCT060
     FM251500 27012G20KT P6SM SCT050
     FM251800 27015G25KT P6SM BKN050
     FM260000 26008KT P6SM SCT050=

USA.gov is the U.S. government's official web portal to all federal, state and local government web resources and services.